ESMS Airport Information

Runway Information
Runway 11 Length 2615 ft width 75 ft
Elevation 232 ft Threshold ft Heading 105
Runway 29 Length 2615 ft Width 75 ft
Elevation 228 ft Threshold ft Heading 285
Runway 17 Length 9186 ft width 148 ft
Elevation 209 ft Threshold ft Heading 173
Runway 35 Length 9186 ft Width 148 ft
Elevation 236 ft Threshold ft Heading 353
Airport Frequencies
Type APP Name MALMO CON Frequency 135.9 MHZ
Type ATIS Name ATIS Frequency 129.275 MHZ
Type TWR Name TWR Frequency 118.8 MHZ
Airport Navaids
Type NDB Name Sturup Frequency 351 KHZ
Type NDB Name Sturup Frequency 420 KHZ
Type VOR-DME Name Sturup Frequency 113000 KHZ
Airport Weather Information & NOTAM
ADDS - METARS form results

(1026 UTC 08 August 2022)
Data provider http://aviationweather.gov/metar/data/
 
METAR text: ESMS 081020Z 26007KT 240V300 9999 FEW035 BKN088 20/11 Q1025
Conditions at: ESMS (MALMO/STURUP , SE) observed 1020 UTC 08 August 2022
Temperature: 20.0°C (68°F)
Dewpoint: 11.0°C (52°F) [RH = 56%]
Pressure (altimeter): 30.27 inches Hg (1025.0 mb)
Winds: from the W (260 degrees) at 8 MPH (7 knots; 3.6 m/s)
Visibility: 6 or more miles (10+ km)
Ceiling: 8800 feet AGL
Clouds: few clouds at 3500 feet AGL
broken clouds at 8800 feet AGL
Weather: no significant weather observed at this time

METAR text: ESMS 080950Z 26009KT 9999 FEW025 SCT049 19/11 Q1025
Conditions at: ESMS (MALMO/STURUP , SE) observed 0950 UTC 08 August 2022
Temperature: 19.0°C (66°F)
Dewpoint: 11.0°C (52°F) [RH = 60%]
Pressure (altimeter): 30.27 inches Hg (1025.0 mb)
Winds: from the W (260 degrees) at 10 MPH (9 knots; 4.6 m/s)
Visibility: 6 or more miles (10+ km)
Ceiling: at least 12,000 feet AGL
Clouds: few clouds at 2500 feet AGL
scattered clouds at 4900 feet AGL
Weather: no significant weather observed at this time

Forecast for: ESMS (MALMO/STURUP , SE)
Text: TAF ESMS 080802Z 0809/0909 VRB02KT 9999 SCT030
Forecast period: 0900 UTC 08 August 2022 to 0900 UTC 09 August 2022
Forecast type: FROM: standard forecast or significant change
Winds: variable direction winds at 2 MPH (2 knots; 1.0 m/s)
Visibility: 6 or more miles (10+ km)
Ceiling: at least 12,000 feet AGL
Clouds: scattered clouds at 3000 feet AGL
Weather: no significant weather forecast for this period
Text: TEMPO 0809/0815 27010KT SCT020TCU
Forecast period: 0900 to 1500 UTC 08 August 2022
Forecast type: TEMPORARY: The following changes expected for less than half the time period
Winds: from the W (270 degrees) at 12 MPH (10 knots; 5.1 m/s)
Visibility: missing
Ceiling: at least 12,000 feet AGL
Clouds: scattered clouds at 2000 feet AGL
Weather: no significant weather forecast for this period